Time;durP1;ratioP1;P1;durP2;ratioP2;P2;SDS_P1;SDS_P2;PMS_P1;PMS_P2;Temp;Humidity;BMP_temperature;BMP_pressure;BME280_temperature;BME280_humidity;BME280_pressure;Samples;Min_cycle;Max_cycle;Signal;HPM_P1;HPM_P2
2023/02/14 00:00:41;;;;;;;;;17.00;17.00;;;;;20.93;39.70;103193.31;5036161;28;45434;-77
2023/02/14 00:03:06;;;;;;;;;21.00;19.00;;;;;20.93;39.55;103200.41;5018595;28;45467;-76
2023/02/14 00:05:32;;;;;;;;;21.25;20.75;;;;;20.91;39.59;103195.25;5036035;28;45424;-76
2023/02/14 00:07:57;;;;;;;;;23.75;20.25;;;;;20.93;39.22;103206.56;5036149;28;45365;-76
2023/02/14 00:10:23;;;;;;;;;26.00;18.25;;;;;20.95;39.29;103203.78;5036273;28;45414;-77
2023/02/14 00:12:48;;;;;;;;;21.50;19.00;;;;;20.93;39.12;103205.69;5036209;28;45390;-77
2023/02/14 00:15:22;;;;;;;;;24.50;21.25;;;;;20.94;39.05;103210.06;5035675;28;47469;-77
2023/02/14 00:17:50;;;;;;;;;19.75;18.00;;;;;20.94;39.28;103204.75;5036036;28;45520;-76
2023/02/14 00:20:15;;;;;;;;;23.25;18.75;;;;;20.93;39.29;103208.34;5034871;28;45241;-76
2023/02/14 00:22:41;;;;;;;;;21.50;19.00;;;;;20.91;39.28;103205.84;5035965;28;45225;-76
2023/02/14 00:25:06;;;;;;;;;17.25;17.00;;;;;20.93;39.28;103195.13;5035912;28;45384;-76
2023/02/14 00:27:32;;;;;;;;;17.00;15.50;;;;;20.86;39.51;103181.50;5035528;28;45356;-77
2023/02/14 00:30:00;;;;;;;;;20.25;18.75;;;;;20.91;39.22;103195.25;5035698;28;45271;-77
2023/02/14 00:32:26;;;;;;;;;23.00;22.50;;;;;20.88;39.16;103186.69;5035488;28;45567;-74
2023/02/14 00:34:52;;;;;;;;;21.00;18.00;;;;;20.89;39.45;103194.53;5035399;28;46312;-76
2023/02/14 00:37:17;;;;;;;;;24.75;21.00;;;;;20.87;39.26;103180.53;5034833;28;45352;-76
2023/02/14 00:39:42;;;;;;;;;19.50;18.00;;;;;20.89;39.53;103181.28;5035806;28;45310;-76
2023/02/14 00:42:07;;;;;;;;;24.00;19.50;;;;;20.89;39.44;103183.94;5035480;28;45317;-76
2023/02/14 00:44:33;;;;;;;;;23.75;20.25;;;;;20.89;39.44;103180.44;5035545;28;45405;-76
2023/02/14 00:46:58;;;;;;;;;20.00;19.00;;;;;20.90;39.25;103179.47;5017438;28;45414;-77
2023/02/14 00:49:23;;;;;;;;;20.00;19.75;;;;;20.87;39.54;103175.25;5035592;28;45216;-76
2023/02/14 00:51:49;;;;;;;;;18.25;18.25;;;;;20.88;39.21;103166.38;5035790;28;45383;-76
2023/02/14 00:54:14;;;;;;;;;23.00;19.75;;;;;20.88;39.18;103174.31;5035426;28;46123;-77
2023/02/14 00:56:39;;;;;;;;;21.25;18.00;;;;;20.88;39.00;103179.59;5035066;28;45351;-76
2023/02/14 00:59:05;;;;;;;;;24.25;17.25;;;;;20.88;39.21;103176.09;5035620;28;45295;-77
2023/02/14 01:01:30;;;;;;;;;17.25;16.25;;;;;20.88;39.44;103178.75;5035717;28;45379;-76
2023/02/14 01:03:57;;;;;;;;;15.50;15.50;;;;;20.86;39.45;103176.22;5035343;28;46215;-76
2023/02/14 01:06:23;;;;;;;;;21.25;19.25;;;;;20.85;39.26;103179.81;5035458;28;45374;-76
2023/02/14 01:08:48;;;;;;;;;21.75;20.50;;;;;20.85;39.37;103174.53;5035275;28;45396;-76
2023/02/14 01:11:17;;;;;;;;;21.50;17.25;;;;;20.85;38.86;103174.53;5035085;28;45454;-76
2023/02/14 01:13:43;;;;;;;;;18.25;16.50;;;;;20.84;39.34;103181.63;5035351;28;47022;-77
2023/02/14 01:16:11;;;;;;;;;26.50;20.50;;;;;20.78;39.38;103165.38;5035271;28;45248;-77
2023/02/14 01:18:37;;;;;;;;;22.25;21.25;;;;;20.83;39.03;103173.81;5035306;28;45350;-77
2023/02/14 01:21:30;;;;;;;;;20.50;18.00;;;;;20.82;39.25;103165.00;5035288;28;45223;-78
2023/02/14 01:23:58;;;;;;;;;19.50;17.25;;;;;20.83;38.90;103176.44;5031220;28;46442;-76
2023/02/14 01:26:24;;;;;;;;;21.00;19.00;;;;;20.82;38.94;103170.31;5034618;28;45479;-76
2023/02/14 01:28:50;;;;;;;;;19.75;18.50;;;;;20.81;38.81;103171.28;5035018;28;45349;-76
2023/02/14 01:31:19;;;;;;;;;20.00;18.50;;;;;20.81;38.96;103178.38;5014625;28;45431;-77
2023/02/14 01:33:47;;;;;;;;;20.50;17.25;;;;;20.83;39.13;103173.81;5018486;28;45413;-74
2023/02/14 01:36:17;;;;;;;;;22.00;21.75;;;;;20.80;39.19;103166.09;5018515;28;45311;-76
2023/02/14 01:38:43;;;;;;;;;23.25;21.50;;;;;20.83;39.20;103177.31;5018638;28;45324;-76
2023/02/14 01:41:08;;;;;;;;;22.25;19.75;;;;;20.82;38.77;103175.59;5018185;28;45322;-76
2023/02/14 01:43:57;;;;;;;;;14.75;14.75;;;;;20.83;39.00;103179.09;5018460;28;46341;-76
2023/02/14 01:46:23;;;;;;;;;21.25;16.25;;;;;20.84;39.21;103170.22;5023726;28;45478;-76
2023/02/14 01:48:51;;;;;;;;;21.00;20.00;;;;;20.83;38.91;103179.09;5038111;28;45458;-76
2023/02/14 01:51:18;;;;;;;;;18.75;17.00;;;;;20.84;38.85;103181.63;5038045;28;45671;-76
2023/02/14 01:53:44;;;;;;;;;22.25;20.00;;;;;20.83;38.70;103179.09;5037917;28;46367;-77
2023/02/14 01:56:16;;;;;;;;;19.75;19.25;;;;;20.78;38.74;103163.56;5037741;28;45256;-77
2023/02/14 01:58:45;;;;;;;;;22.75;18.50;;;;;20.80;38.91;103172.22;5038237;28;45363;-76
2023/02/14 02:01:16;;;;;;;;;22.00;20.25;;;;;20.77;39.14;103168.97;5038147;28;45388;-76
2023/02/14 02:03:52;;;;;;;;;23.50;20.75;;;;;20.81;38.94;103176.56;5037404;28;45370;-77
2023/02/14 02:06:36;;;;;;;;;18.50;18.50;;;;;20.81;38.97;103170.44;5037876;28;45355;-74
2023/02/14 02:09:03;;;;;;;;;21.50;20.50;;;;;20.82;39.08;103178.25;5037633;28;45358;-78
2023/02/14 02:11:29;;;;;;;;;24.00;19.75;;;;;20.81;38.81;103163.34;5038009;28;45486;-76
2023/02/14 02:13:54;;;;;;;;;19.25;18.25;;;;;20.80;38.92;103169.59;5037890;28;46041;-77
2023/02/14 02:16:22;;;;;;;;;25.25;21.50;;;;;20.80;38.81;103169.59;5037910;28;45297;-77
2023/02/14 02:19:17;;;;;;;;;20.25;18.25;;;;;20.72;38.88;103153.44;5038029;28;45356;-76
2023/02/14 02:22:07;;;;;;;;;18.25;17.75;;;;;20.80;38.92;103166.09;5037942;28;45291;-76
2023/02/14 02:24:50;;;;;;;;;21.75;18.50;;;;;20.79;38.63;103161.78;5037094;28;46345;-77
2023/02/14 02:27:37;;;;;;;;;23.00;19.75;;;;;20.78;38.75;103165.38;5037728;28;45342;-77
2023/02/14 02:30:24;;;;;;;;;22.00;20.50;;;;;20.77;38.58;103161.03;5037459;28;45364;-77
2023/02/14 02:33:25;;;;;;;;;20.75;17.50;;;;;20.77;38.95;103161.03;5037648;28;45342;-76
2023/02/14 02:36:14;;;;;;;;;23.00;20.00;;;;;20.76;38.81;103154.91;5037299;28;46285;-75
2023/02/14 02:38:45;;;;;;;;;23.75;22.25;;;;;20.76;38.86;103154.06;5037101;28;45238;-76
2023/02/14 02:41:22;;;;;;;;;26.50;22.50;;;;;20.75;38.73;103155.84;5037537;28;45394;-76
2023/02/14 02:44:16;;;;;;;;;21.25;19.75;;;;;20.71;38.77;103157.88;5036366;28;45446;-76
2023/02/14 02:46:52;;;;;;;;;26.75;22.75;;;;;20.73;38.60;103153.34;5037174;28;46144;-75
2023/02/14 02:53:04;;;;;;;;;24.75;21.25;;;;;20.66;38.41;103143.34;5037130;28;45739;-76
2023/02/14 02:58:33;;;;;;;;;24.50;22.00;;;;;20.71;38.98;103155.22;5037098;28;45899;-76
2023/02/14 03:01:05;;;;;;;;;24.00;20.00;;;;;20.71;38.37;103154.41;5037161;28;45240;-76
2023/02/14 03:06:17;;;;;;;;;22.50;22.25;;;;;20.72;38.46;103143.69;5037285;28;45411;-76
2023/02/14 03:08:42;;;;;;;;;22.25;19.75;;;;;20.73;38.68;103144.56;5036792;28;45402;-76
2023/02/14 03:11:11;;;;;;;;;21.25;19.50;;;;;20.74;38.51;103136.50;5037195;28;45362;-76
2023/02/14 03:13:41;;;;;;;;;27.25;24.25;;;;;20.74;38.28;103144.44;5037306;28;45260;-77
2023/02/14 03:16:24;;;;;;;;;24.50;21.25;;;;;20.66;38.43;103130.09;5037021;28;45386;-76
2023/02/14 03:19:16;;;;;;;;;23.50;20.75;;;;;20.75;38.33;103147.91;5036595;28;46309;-77
2023/02/14 03:21:50;;;;;;;;;26.50;23.25;;;;;20.74;38.57;103141.78;5036576;28;45629;-76
2023/02/14 03:24:40;;;;;;;;;22.00;21.00;;;;;20.74;38.64;103139.13;5036935;28;45273;-77
2023/02/14 03:27:15;;;;;;;;;22.75;18.50;;;;;20.68;38.32;103138.75;5036895;28;45507;-76
2023/02/14 03:30:05;;;;;;;;;25.25;22.00;;;;;20.75;38.41;103150.56;5018445;28;46187;-77
2023/02/14 03:32:40;;;;;;;;;23.50;22.00;;;;;20.74;38.56;103147.06;5036678;28;45336;-78
2023/02/14 03:35:23;;;;;;;;;25.25;22.00;;;;;20.66;38.24;103135.41;5036461;28;45489;-77
2023/02/14 03:38:05;;;;;;;;;25.00;19.75;;;;;20.73;38.23;103148.03;5036197;28;45296;-77
2023/02/14 03:40:56;;;;;;;;;26.50;23.00;;;;;20.72;38.16;103142.84;5036567;28;46120;-77
2023/02/14 03:43:30;;;;;;;;;23.00;21.50;;;;;20.72;38.46;103151.63;5036448;28;45434;-76
2023/02/14 03:46:05;;;;;;;;;25.00;22.25;;;;;20.72;38.39;103148.16;5036425;28;45371;-76
2023/02/14 03:48:33;;;;;;;;;21.75;20.00;;;;;20.71;38.14;103147.28;5036387;28;45342;-76
2023/02/14 03:51:01;;;;;;;;;21.75;16.50;;;;;20.72;38.29;103148.16;5035914;28;45627;-76
2023/02/14 03:53:31;;;;;;;;;25.75;22.00;;;;;20.69;38.18;103135.13;5036238;28;45477;-76
2023/02/14 03:56:11;;;;;;;;;24.50;21.75;;;;;20.70;38.17;103147.41;5036215;28;45292;-76
2023/02/14 03:58:41;;;;;;;;;20.75;19.25;;;;;20.71;38.17;103141.19;5036368;28;45437;-76
2023/02/14 04:01:15;;;;;;;;;22.50;20.75;;;;;20.69;38.36;103138.63;5036044;28;46157;-76
2023/02/14 04:03:42;;;;;;;;;22.25;21.50;;;;;20.69;38.28;103143.94;5035215;28;45280;-76
2023/02/14 04:06:08;;;;;;;;;18.75;17.50;;;;;20.69;38.18;103137.78;5036163;28;45346;-76
2023/02/14 04:08:34;;;;;;;;;21.25;20.50;;;;;20.68;38.28;103139.63;5036054;28;45471;-76
2023/02/14 04:11:01;;;;;;;;;21.25;20.75;;;;;20.67;38.34;103145.00;5036212;28;45421;-76
2023/02/14 04:13:27;;;;;;;;;18.50;18.00;;;;;20.69;38.44;103141.28;5036129;28;45350;-76
2023/02/14 04:15:53;;;;;;;;;23.75;20.75;;;;;20.59;38.61;103129.69;5036049;28;45512;-76
2023/02/14 04:21:02;;;;;;;;;25.00;19.75;;;;;20.68;38.36;103139.63;5035550;28;45473;-76
2023/02/14 04:23:27;;;;;;;;;24.25;23.25;;;;;20.67;38.31;103145.00;5035949;28;45299;-76
2023/02/14 04:25:53;;;;;;;;;25.50;21.25;;;;;20.67;38.27;103145.00;5036121;28;45394;-76
2023/02/14 04:28:18;;;;;;;;;26.50;20.00;;;;;20.67;38.31;103150.28;5035845;28;45402;-75
2023/02/14 04:30:43;;;;;;;;;28.25;26.25;;;;;20.55;38.25;103130.91;5034953;28;45377;-76
2023/02/14 04:33:09;;;;;;;;;22.00;21.75;;;;;20.65;38.42;103137.19;5035849;28;45303;-75
2023/02/14 04:35:35;;;;;;;;;27.75;27.00;;;;;20.66;38.33;103144.16;5035353;28;45348;-76
2023/02/14 04:38:01;;;;;;;;;25.25;24.50;;;;;20.67;37.98;103147.66;5035452;28;45752;-76
2023/02/14 04:40:27;;;;;;;;;25.25;22.00;;;;;20.67;38.21;103143.19;5035683;28;45347;-75
2023/02/14 04:42:52;;;;;;;;;26.50;24.25;;;;;20.68;38.14;103144.91;5035149;28;45351;-76
2023/02/14 04:45:17;;;;;;;;;23.00;21.50;;;;;20.68;38.13;103142.25;5017872;28;45253;-76
2023/02/14 04:47:43;;;;;;;;;25.25;21.75;;;;;20.68;37.90;103136.13;5035504;28;45375;-75
2023/02/14 04:50:09;;;;;;;;;25.75;21.50;;;;;20.68;38.18;103138.75;5035308;28;45356;-76
2023/02/14 04:52:34;;;;;;;;;23.25;21.75;;;;;20.69;38.07;103145.72;5035458;28;45339;-76
2023/02/14 04:54:59;;;;;;;;;27.75;25.75;;;;;20.57;38.11;103123.69;5035732;28;45358;-76
2023/02/14 04:57:25;;;;;;;;;27.75;26.00;;;;;20.69;37.82;103151.88;5035600;28;45335;-76
2023/02/14 04:59:50;;;;;;;;;25.50;24.00;;;;;20.69;38.25;103148.38;5035484;28;46155;-76
2023/02/14 05:02:15;;;;;;;;;22.50;22.50;;;;;20.62;38.21;103132.97;5034680;28;45315;-77
2023/02/14 05:04:41;;;;;;;;;25.00;24.50;;;;;20.69;37.92;103143.06;5035297;28;45387;-75
2023/02/14 05:07:06;;;;;;;;;24.75;22.75;;;;;20.69;38.08;103146.56;5037718;28;45541;-75
2023/02/14 05:09:32;;;;;;;;;28.00;22.75;;;;;20.69;38.02;103145.72;5038880;28;45307;-76
2023/02/14 05:11:57;;;;;;;;;23.75;23.25;;;;;20.68;37.98;103142.25;5038382;28;45370;-76
2023/02/14 05:14:22;;;;;;;;;29.50;24.25;;;;;20.65;38.07;103150.41;5039182;28;45359;-75
2023/02/14 05:16:47;;;;;;;;;26.00;22.25;;;;;20.67;37.86;103139.72;5038902;28;45445;-76
2023/02/14 05:19:13;;;;;;;;;28.00;25.25;;;;;20.67;37.99;103135.25;5020312;28;47323;-75
2023/02/14 05:21:38;;;;;;;;;26.00;22.25;;;;;20.67;37.75;103139.72;5038753;28;45371;-75
2023/02/14 05:24:04;;;;;;;;;28.75;25.00;;;;;20.67;37.99;103139.72;5038777;28;45348;-76
2023/02/14 05:26:29;;;;;;;;;23.00;21.75;;;;;20.66;37.67;103135.41;5038416;28;45669;-77
2023/02/14 05:28:55;;;;;;;;;22.00;20.50;;;;;20.67;37.98;103142.34;5038474;28;45466;-75
2023/02/14 05:31:21;;;;;;;;;24.25;23.75;;;;;20.65;37.93;103141.63;5038360;28;45363;-76
2023/02/14 05:33:47;;;;;;;;;22.50;20.00;;;;;20.63;37.71;103139.94;5038279;28;45409;-75
2023/02/14 05:36:12;;;;;;;;;22.50;21.25;;;;;20.64;37.78;103143.44;5037306;28;45419;-76
2023/02/14 05:38:37;;;;;;;;;23.75;22.75;;;;;20.63;37.75;103134.63;5038584;28;45371;-77
2023/02/14 05:41:03;;;;;;;;;28.00;25.00;;;;;20.59;38.00;103127.91;5038434;28;45219;-76
2023/02/14 05:43:29;;;;;;;;;25.75;24.25;;;;;20.62;37.90;103137.41;5038699;28;45272;-76
2023/02/14 05:45:55;;;;;;;;;27.25;24.75;;;;;20.57;38.05;103127.19;5037490;28;45490;-76
2023/02/14 05:48:21;;;;;;;;;24.75;20.50;;;;;20.62;37.87;103129.47;5037603;28;46306;-76
2023/02/14 05:50:46;;;;;;;;;22.25;21.00;;;;;20.57;37.93;103119.25;5038217;28;45375;-75
2023/02/14 05:53:12;;;;;;;;;22.75;21.50;;;;;20.61;38.06;103125.13;5038415;28;45425;-75
2023/02/14 05:55:38;;;;;;;;;31.50;24.25;;;;;20.60;37.52;103128.75;5038280;28;45402;-77
2023/02/14 05:58:03;;;;;;;;;22.25;21.00;;;;;20.60;37.97;103134.91;5038083;28;47150;-76
2023/02/14 06:00:29;;;;;;;;;23.00;21.50;;;;;20.60;38.00;103139.34;5038108;28;45443;-76
2023/02/14 06:02:54;;;;;;;;;25.75;21.50;;;;;20.60;37.74;103141.97;5037974;28;45383;-75
2023/02/14 06:05:20;;;;;;;;;23.00;20.50;;;;;20.60;37.64;103141.97;5038198;28;45302;-75
2023/02/14 06:07:49;;;;;;;;;29.25;23.75;;;;;20.60;37.74;103137.53;5037952;28;45364;-77
2023/02/14 06:10:22;;;;;;;;;23.50;21.50;;;;;20.61;37.72;103135.72;5037874;28;45342;-75
2023/02/14 06:12:49;;;;;;;;;26.00;18.75;;;;;20.61;38.00;103133.91;5037874;28;45386;-75
2023/02/14 06:15:15;;;;;;;;;24.00;20.50;;;;;20.61;37.61;103131.28;5037982;28;45534;-76
2023/02/14 06:17:40;;;;;;;;;24.00;22.25;;;;;20.59;37.66;103124.41;5037395;28;46131;-76
2023/02/14 06:20:08;;;;;;;;;23.75;20.75;;;;;20.62;37.61;103140.06;5037898;28;45260;-76
2023/02/14 06:22:33;;;;;;;;;20.50;20.50;;;;;20.62;37.54;103134.78;5038061;28;45369;-75
2023/02/14 06:24:59;;;;;;;;;24.50;21.75;;;;;20.60;37.52;103126.97;5037670;28;45512;-76
2023/02/14 06:27:24;;;;;;;;;24.25;22.50;;;;;20.62;37.57;103126.84;5036873;28;45386;-75
2023/02/14 06:29:49;;;;;;;;;22.25;20.00;;;;;20.62;37.64;103134.78;5037627;28;45418;-76
2023/02/14 06:32:15;;;;;;;;;25.00;20.50;;;;;20.62;37.27;103134.78;5036525;28;45354;-75
2023/02/14 06:34:40;;;;;;;;;21.25;20.50;;;;;20.59;37.42;103129.69;5037522;28;45358;-76
2023/02/14 06:37:06;;;;;;;;;18.00;16.50;;;;;20.63;37.45;103141.75;5037396;28;49278;-75
2023/02/14 06:39:32;;;;;;;;;20.50;17.25;;;;;20.63;37.77;103153.16;5037603;28;45280;-76
2023/02/14 06:41:57;;;;;;;;;21.00;19.75;;;;;20.58;37.65;103143.91;5019813;28;45245;-75
2023/02/14 06:44:22;;;;;;;;;26.50;22.25;;;;;20.62;37.74;103151.50;5037557;28;45315;-76
2023/02/14 06:46:48;;;;;;;;;23.75;21.00;;;;;20.62;37.40;103150.63;5037297;28;46009;-76
2023/02/14 06:49:13;;;;;;;;;21.75;18.50;;;;;20.61;37.70;103149.78;5037208;28;45362;-76
2023/02/14 06:51:39;;;;;;;;;23.25;21.50;;;;;20.62;37.50;103153.28;5037675;28;45371;-75
2023/02/14 06:54:04;;;;;;;;;25.00;19.00;;;;;20.61;37.70;103156.88;5037396;28;45404;-76
2023/02/14 06:56:29;;;;;;;;;18.25;16.75;;;;;20.60;37.52;103166.63;5037314;28;46025;-76
2023/02/14 06:58:55;;;;;;;;;18.75;14.00;;;;;20.60;37.31;103168.44;5036851;28;45372;-75
2023/02/14 07:01:20;;;;;;;;;27.75;22.00;;;;;20.59;37.43;103164.94;5037449;28;45387;-80
2023/02/14 07:03:45;;;;;;;;;23.75;20.00;;;;;20.51;37.40;103147.00;5037259;28;45298;-78
2023/02/14 07:06:11;;;;;;;;;20.50;19.50;;;;;20.58;37.63;103157.94;5036081;28;46402;-77
2023/02/14 07:08:36;;;;;;;;;21.50;20.00;;;;;20.59;37.47;103157.00;5036997;28;45382;-75
2023/02/14 07:11:01;;;;;;;;;31.00;24.75;;;;;20.59;37.58;103159.66;5036732;28;45554;-75
2023/02/14 07:13:27;;;;;;;;;22.00;20.50;;;;;20.50;38.09;103145.31;5036631;28;45390;-75
2023/02/14 07:15:52;;;;;;;;;22.75;19.00;;;;;20.60;37.90;103156.06;5036868;28;46261;-75
2023/02/14 07:18:17;;;;;;;;;23.75;18.00;;;;;20.60;38.45;103155.22;5036669;28;45363;-77
2023/02/14 07:20:43;;;;;;;;;9.75;9.00;;;;;20.60;38.68;103157.84;5037026;28;45343;-74
2023/02/14 07:23:09;;;;;;;;;27.25;23.50;;;;;20.62;38.44;103163.88;5036904;28;45296;-75
2023/02/14 07:25:34;;;;;;;;;23.25;21.50;;;;;20.63;38.40;103157.63;5036227;28;46065;-73
2023/02/14 07:28:00;;;;;;;;;24.25;19.25;;;;;20.62;38.36;103156.78;5023428;28;45945;-71
2023/02/14 07:30:26;;;;;;;;;15.75;13.75;;;;;20.55;38.64;103142.34;5034469;28;45510;-75
2023/02/14 07:32:51;;;;;;;;;23.00;19.75;;;;;20.63;38.88;103160.28;5031975;28;45391;-75
2023/02/14 07:35:17;;;;;;;;;20.75;18.00;;;;;20.62;38.82;103156.78;5028956;28;47580;-75
2023/02/14 07:37:42;;;;;;;;;22.75;19.00;;;;;20.64;38.65;103164.59;5031280;28;45399;-74
2023/02/14 07:40:08;;;;;;;;;22.25;19.25;;;;;20.64;38.77;103175.16;5031917;28;45413;-74
2023/02/14 07:42:33;;;;;;;;;19.50;18.25;;;;;20.63;38.42;103169.03;5030777;28;45660;-75
2023/02/14 07:44:58;;;;;;;;;27.00;21.50;;;;;20.65;38.56;103170.72;5030655;28;46001;-75
2023/02/14 07:47:24;;;;;;;;;19.50;18.00;;;;;20.64;38.41;103175.16;5029953;28;45516;-75
2023/02/14 07:49:50;;;;;;;;;20.75;17.50;;;;;20.65;38.39;103181.31;5031208;28;45440;-75
2023/02/14 07:52:16;;;;;;;;;19.00;18.50;;;;;20.65;38.53;103178.66;5031756;28;45778;-75
2023/02/14 07:54:41;;;;;;;;;20.00;17.25;;;;;20.65;38.82;103176.88;5046657;28;46101;-75
2023/02/14 07:57:07;;;;;;;;;21.75;18.75;;;;;20.69;38.30;103180.13;5029153;28;45513;-75
2023/02/14 07:59:32;;;;;;;;;20.50;18.25;;;;;20.65;38.19;103170.72;5030160;28;45511;-74
2023/02/14 08:01:57;;;;;;;;;23.75;21.00;;;;;20.71;38.27;103178.22;5030810;28;45489;-75
2023/02/14 08:04:25;;;;;;;;;15.75;15.75;;;;;20.45;38.51;103125.47;5046344;28;48178;-75
2023/02/14 08:06:52;;;;;;;;;21.50;19.00;;;;;20.77;37.97;103175.09;5031156;28;45520;-75
2023/02/14 08:09:24;;;;;;;;;19.50;17.25;;;;;20.81;38.29;103176.56;5030783;28;45419;-75
2023/02/14 08:14:38;;;;;;;;;20.50;16.50;;;;;20.79;38.38;103170.53;5029632;28;45708;-75
2023/02/14 08:17:04;;;;;;;;;22.00;17.25;;;;;20.81;38.29;103183.66;5029962;28;45736;-74
2023/02/14 08:19:29;;;;;;;;;21.50;19.25;;;;;20.79;38.02;103175.81;5030896;28;45453;-74
2023/02/14 08:21:54;;;;;;;;;21.75;19.25;;;;;20.73;38.18;103168.38;5030657;28;45488;-75
2023/02/14 08:24:20;;;;;;;;;17.50;17.00;;;;;20.76;38.55;103181.38;5030297;28;46000;-75
2023/02/14 08:26:45;;;;;;;;;20.25;16.75;;;;;20.76;38.10;103175.22;5030364;28;45434;-75
2023/02/14 08:29:11;;;;;;;;;24.00;18.00;;;;;20.65;38.40;103165.44;5031010;28;45598;-75
2023/02/14 08:31:36;;;;;;;;;18.25;14.50;;;;;20.72;38.14;103177.25;5030401;28;46602;-75
2023/02/14 08:34:06;;;;;;;;;19.50;18.25;;;;;20.71;38.04;103180.88;5030289;28;46811;-75
2023/02/14 08:36:32;;;;;;;;;18.00;18.00;;;;;20.70;38.06;103184.47;5029937;28;45378;-75
2023/02/14 08:38:57;;;;;;;;;13.00;13.00;;;;;20.70;38.39;103176.53;5029652;28;45382;-75
2023/02/14 08:41:23;;;;;;;;;18.50;17.25;;;;;20.67;38.29;103176.75;5028564;28;45482;-75
2023/02/14 08:43:48;;;;;;;;;17.75;17.75;;;;;20.63;38.11;103176.97;5030509;28;47169;-75
2023/02/14 08:46:15;;;;;;;;;22.00;18.75;;;;;20.68;38.11;103183.72;5030698;28;45544;-75
2023/02/14 08:48:42;;;;;;;;;18.25;17.50;;;;;20.67;38.11;103176.75;5030432;28;45646;-75
2023/02/14 08:51:10;;;;;;;;;20.75;18.00;;;;;20.67;38.33;103174.94;5030397;28;45601;-74
2023/02/14 08:53:37;;;;;;;;;20.25;16.25;;;;;20.66;38.06;103177.72;5029769;28;46216;-74
2023/02/14 08:56:03;;;;;;;;;18.75;17.00;;;;;20.67;38.23;103179.38;5030173;28;45512;-75
2023/02/14 08:58:29;;;;;;;;;11.25;8.25;;;;;20.63;38.31;103171.69;5029937;28;46205;-75
2023/02/14 09:00:55;;;;;;;;;19.75;19.50;;;;;20.69;38.36;103180.13;5030230;28;45533;-75
2023/02/14 09:03:20;;;;;;;;;18.25;17.00;;;;;20.69;38.18;103175.66;5029625;28;45682;-75
2023/02/14 09:05:46;;;;;;;;;19.50;16.25;;;;;20.68;38.02;103175.81;5030040;28;45963;-73
2023/02/14 09:08:11;;;;;;;;;19.50;17.50;;;;;20.65;38.23;103165.44;5030240;28;46619;-73
2023/02/14 09:10:36;;;;;;;;;21.50;17.50;;;;;20.69;38.17;103166.88;5029410;28;45693;-73
2023/02/14 09:13:02;;;;;;;;;18.25;17.25;;;;;20.69;38.40;103162.44;5030027;28;46694;-75
2023/02/14 09:15:28;;;;;;;;;18.50;16.75;;;;;20.69;38.49;103165.09;5029357;28;46718;-75
2023/02/14 09:17:53;;;;;;;;;18.25;17.00;;;;;20.71;38.29;103165.81;5030048;28;45832;-75
2023/02/14 09:20:18;;;;;;;;;20.75;18.50;;;;;20.72;38.20;103161.38;5030032;28;45603;-72
2023/02/14 09:22:44;;;;;;;;;18.75;16.00;;;;;20.73;38.08;103157.78;5028555;28;45532;-73
2023/02/14 09:25:10;;;;;;;;;16.75;16.75;;;;;20.76;38.01;103159.34;5029631;28;45455;-73
2023/02/14 09:27:36;;;;;;;;;18.25;14.25;;;;;20.77;38.11;103156.59;5029587;28;45527;-73
2023/02/14 09:30:01;;;;;;;;;23.75;19.00;;;;;20.72;37.87;103140.22;5029082;28;45728;-73
2023/02/14 09:32:28;;;;;;;;;20.00;17.75;;;;;20.71;37.77;103136.72;5029624;28;46129;-75
2023/02/14 09:40:21;;;;;;;;;16.50;15.00;;;;;20.85;38.05;103146.28;5029260;28;45529;-73
2023/02/14 09:43:29;;;;;;;;;22.00;19.25;;;;;20.88;37.95;103150.47;5029035;28;45586;-74
2023/02/14 09:45:59;;;;;;;;;20.00;16.50;;;;;20.89;37.60;103143.41;5027367;28;45414;-73
2023/02/14 09:48:30;;;;;;;;;21.00;17.25;;;;;20.90;38.04;103145.91;5029338;28;45518;-75
2023/02/14 09:51:04;;;;;;;;;20.75;17.25;;;;;20.81;37.93;103134.25;5029646;28;46571;-74
2023/02/14 09:53:34;;;;;;;;;19.00;18.00;;;;;20.91;37.86;103147.63;5030767;28;46389;-73
2023/02/14 09:56:21;;;;;;;;;21.00;18.75;;;;;20.90;37.54;103139.78;5032506;28;45976;-73
2023/02/14 09:59:05;;;;;;;;;17.00;16.25;;;;;20.90;37.78;103145.91;5032976;28;45731;-73
2023/02/14 10:01:34;;;;;;;;;21.00;19.75;;;;;20.89;38.18;103140.75;5032862;28;45359;-75
2023/02/14 10:04:31;;;;;;;;;19.50;17.75;;;;;20.87;38.02;103140.84;5032380;28;46292;-75
2023/02/14 10:07:16;;;;;;;;;22.50;18.00;;;;;20.88;37.65;103137.25;5032295;28;45429;-75
2023/02/14 10:09:56;;;;;;;;;17.25;17.25;;;;;20.89;37.67;103135.47;5032357;28;45793;-75
2023/02/14 10:12:28;;;;;;;;;17.25;15.25;;;;;20.89;37.82;103140.75;5032877;28;45355;-75
2023/02/14 10:14:57;;;;;;;;;18.50;17.75;;;;;20.90;38.04;103139.78;5032179;28;46296;-74
2023/02/14 10:17:45;;;;;;;;;19.50;17.00;;;;;20.90;37.89;103134.47;5031851;28;45335;-75
2023/02/14 10:20:20;;;;;;;;;0.00;0.00;;;;;20.89;37.89;103128.38;5032879;28;45514;-75
2023/02/14 10:23:04;;;;;;;;;18.00;16.00;;;;;20.90;37.66;103124.75;5029089;28;45652;-75
2023/02/14 10:26:16;;;;;;;;;15.50;13.75;;;;;20.90;37.82;103121.25;5032085;28;47397;-75
2023/02/14 10:28:44;;;;;;;;;20.50;19.00;;;;;20.91;37.40;103115.00;5031918;28;45580;-75
2023/02/14 10:31:21;;;;;;;;;18.00;13.25;;;;;20.91;37.73;103107.91;5032139;28;45574;-73
2023/02/14 10:33:51;;;;;;;;;18.75;16.50;;;;;20.91;37.87;103107.91;5032156;28;45576;-74
2023/02/14 10:36:42;;;;;;;;;6.25;4.25;;;;;20.92;38.07;103108.78;5032338;28;47067;-75
2023/02/14 10:39:29;;;;;;;;;18.25;16.50;;;;;20.92;37.79;103108.78;4969788;28;45630;-75
2023/02/14 10:42:22;;;;;;;;;21.50;18.50;;;;;20.92;37.80;103106.13;4970440;28;45933;-75
2023/02/14 10:44:58;;;;;;;;;24.50;20.50;;;;;20.90;37.26;103103.56;4970071;28;45551;-74
2023/02/14 10:47:35;;;;;;;;;19.50;17.50;;;;;20.92;37.73;103106.13;4969795;28;46078;-74
2023/02/14 10:50:19;;;;;;;;;19.50;17.75;;;;;20.93;37.82;103105.16;4970164;28;45497;-74
2023/02/14 10:53:03;;;;;;;;;17.75;16.25;;;;;20.93;37.84;103099.84;4966899;28;45460;-75
2023/02/14 10:55:42;;;;;;;;;22.00;19.25;;;;;20.91;38.11;103097.34;4969733;28;45491;-74
2023/02/14 10:58:13;;;;;;;;;25.00;21.25;;;;;20.92;37.91;103093.72;4969776;28;46103;-74
2023/02/14 11:00:50;;;;;;;;;23.00;20.75;;;;;20.88;37.86;103094.91;4969914;28;45455;-75
2023/02/14 11:03:16;;;;;;;;;18.00;14.75;;;;;20.93;37.66;103090.13;4969517;28;45475;-74
2023/02/14 11:05:45;;;;;;;;;22.50;19.50;;;;;20.95;37.90;103095.28;4969311;28;45408;-75
2023/02/14 11:08:13;;;;;;;;;22.75;21.00;;;;;20.95;37.59;103085.53;4970022;28;45422;-74
2023/02/14 11:10:38;;;;;;;;;21.50;19.25;;;;;20.95;37.44;103082.91;4969304;28;45551;-75
2023/02/14 11:13:31;;;;;;;;;21.75;19.75;;;;;20.94;37.87;103073.28;4968620;28;45687;-74
2023/02/14 11:16:10;;;;;;;;;22.00;19.00;;;;;20.91;38.02;103070.88;4992219;28;45627;-74
2023/02/14 11:18:38;;;;;;;;;20.25;18.50;;;;;20.95;37.78;103069.66;5030859;28;46258;-74
2023/02/14 11:21:13;;;;;;;;;17.00;16.25;;;;;20.90;37.78;103066.53;5031004;28;45798;-74
2023/02/14 11:23:41;;;;;;;;;22.75;20.50;;;;;20.94;37.62;103075.94;5031645;28;45893;-74
2023/02/14 11:26:27;;;;;;;;;20.50;20.25;;;;;20.94;37.78;103069.78;5031513;28;45373;-75
2023/02/14 11:28:56;;;;;;;;;20.75;18.75;;;;;20.93;37.85;103060.16;5031202;28;46419;-75
2023/02/14 11:31:34;;;;;;;;;19.75;18.75;;;;;20.93;37.67;103052.22;5031031;28;45424;-74
2023/02/14 11:34:01;;;;;;;;;27.00;21.75;;;;;20.92;37.99;103045.25;5031708;28;45770;-74
2023/02/14 11:36:29;;;;;;;;;24.50;19.75;;;;;20.93;37.64;103046.94;5030901;28;45677;-75
2023/02/14 11:39:04;;;;;;;;;24.25;22.25;;;;;20.84;36.98;103029.97;5031008;28;46145;-74
2023/02/14 11:41:52;;;;;;;;;37.50;30.75;;;;;20.88;36.49;103041.16;5029298;28;45567;-74